sensor_id;sensor_type;location;lat;lon;timestamp;pressure;altitude;pressure_sealevel;temperature;humidity
66385;BME280;53426;55.872;37.462;2023-04-07T00:01:49;100131.31;;;3.86;49.31
66385;BME280;53426;55.872;37.462;2023-04-07T00:04:15;100141.94;;;3.83;49.23
66385;BME280;53426;55.872;37.462;2023-04-07T00:06:41;100135.94;;;3.81;49.59
66385;BME280;53426;55.872;37.462;2023-04-07T00:09:10;100120.72;;;3.70;49.75
66385;BME280;53426;55.872;37.462;2023-04-07T00:11:36;100123.25;;;3.72;49.82
66385;BME280;53426;55.872;37.462;2023-04-07T00:14:06;100113.16;;;3.64;49.74
66385;BME280;53426;55.872;37.462;2023-04-07T00:16:32;100125.31;;;3.65;50.05
66385;BME280;53426;55.872;37.462;2023-04-07T00:29:53;100125.09;;;3.51;50.41
66385;BME280;53426;55.872;37.462;2023-04-07T00:32:22;100132.16;;;3.49;50.63
66385;BME280;53426;55.872;37.462;2023-04-07T00:34:48;100133.38;;;3.42;50.57
66385;BME280;53426;55.872;37.462;2023-04-07T00:37:14;100120.97;;;3.46;50.76
66385;BME280;53426;55.872;37.462;2023-04-07T00:39:40;100100.88;;;3.27;50.47
66385;BME280;53426;55.872;37.462;2023-04-07T00:57:33;100134.63;;;3.33;50.38
66385;BME280;53426;55.872;37.462;2023-04-07T00:59:59;100129.66;;;3.27;50.60
66385;BME280;53426;55.872;37.462;2023-04-07T01:02:31;100135.88;;;3.25;51.37
66385;BME280;53426;55.872;37.462;2023-04-07T01:05:14;100116.56;;;3.09;51.42
66385;BME280;53426;55.872;37.462;2023-04-07T01:08:02;100140.47;;;3.20;50.94
66385;BME280;53426;55.872;37.462;2023-04-07T01:10:51;100124.34;;;3.10;51.15
66385;BME280;53426;55.872;37.462;2023-04-07T01:13:51;100136.78;;;3.05;51.34
66385;BME280;53426;55.872;37.462;2023-04-07T01:16:44;100137.03;;;2.99;51.78
66385;BME280;53426;55.872;37.462;2023-04-07T01:19:17;100123.31;;;2.94;51.53
66385;BME280;53426;55.872;37.462;2023-04-07T01:21:54;100132.13;;;2.91;51.93
66385;BME280;53426;55.872;37.462;2023-04-07T01:27:21;100138.47;;;2.86;51.98
66385;BME280;53426;55.872;37.462;2023-04-07T01:29:53;100139.59;;;2.80;52.05
66385;BME280;53426;55.872;37.462;2023-04-07T01:32:22;100137.84;;;2.81;52.29
66385;BME280;53426;55.872;37.462;2023-04-07T01:34:53;100111.50;;;2.65;52.37
66385;BME280;53426;55.872;37.462;2023-04-07T01:37:20;100128.53;;;2.74;52.46
66385;BME280;53426;55.872;37.462;2023-04-07T01:39:47;100141.56;;;2.75;52.53
66385;BME280;53426;55.872;37.462;2023-04-07T01:42:14;100140.91;;;2.70;52.25
66385;BME280;53426;55.872;37.462;2023-04-07T01:44:41;100140.09;;;2.68;52.35
66385;BME280;53426;55.872;37.462;2023-04-07T01:47:08;100098.22;;;2.49;51.99
66385;BME280;53426;55.872;37.462;2023-04-07T01:49:35;100117.16;;;2.55;51.88
66385;BME280;53426;55.872;37.462;2023-04-07T01:52:04;100141.03;;;2.67;52.33
66385;BME280;53426;55.872;37.462;2023-04-07T01:54:31;100136.72;;;2.66;52.34
66385;BME280;53426;55.872;37.462;2023-04-07T01:56:58;100135.06;;;2.64;52.09
66385;BME280;53426;55.872;37.462;2023-04-07T01:59:24;100141.41;;;2.58;52.53
66385;BME280;53426;55.872;37.462;2023-04-07T02:01:50;100144.06;;;2.57;52.44
66385;BME280;53426;55.872;37.462;2023-04-07T02:04:34;100138.03;;;2.56;52.32
66385;BME280;53426;55.872;37.462;2023-04-07T02:07:14;100133.97;;;2.49;52.22
66385;BME280;53426;55.872;37.462;2023-04-07T02:09:50;100140.66;;;2.56;52.30
66385;BME280;53426;55.872;37.462;2023-04-07T02:12:17;100131.34;;;2.49;52.59
66385;BME280;53426;55.872;37.462;2023-04-07T02:15:02;100137.47;;;2.48;52.70
66385;BME280;53426;55.872;37.462;2023-04-07T02:17:32;100144.41;;;2.49;52.78
66385;BME280;53426;55.872;37.462;2023-04-07T02:19:59;100136.88;;;2.41;53.06
66385;BME280;53426;55.872;37.462;2023-04-07T02:22:26;100144.66;;;2.43;53.02
66385;BME280;53426;55.872;37.462;2023-04-07T02:24:53;100136.16;;;2.38;52.83
66385;BME280;53426;55.872;37.462;2023-04-07T02:27:24;100146.56;;;2.39;53.26
66385;BME280;53426;55.872;37.462;2023-04-07T02:29:51;100151.84;;;2.38;53.39
66385;BME280;53426;55.872;37.462;2023-04-07T02:32:17;100139.06;;;2.30;53.31
66385;BME280;53426;55.872;37.462;2023-04-07T02:34:44;100151.94;;;2.35;53.42
66385;BME280;53426;55.872;37.462;2023-04-07T02:37:10;100150.38;;;2.31;53.62
66385;BME280;53426;55.872;37.462;2023-04-07T02:39:36;100134.25;;;2.21;53.47
66385;BME280;53426;55.872;37.462;2023-04-07T02:42:02;100144.50;;;2.26;53.72
66385;BME280;53426;55.872;37.462;2023-04-07T02:44:28;100146.25;;;2.25;53.40
66385;BME280;53426;55.872;37.462;2023-04-07T02:46:53;100130.91;;;2.18;53.72
66385;BME280;53426;55.872;37.462;2023-04-07T02:49:19;100148.22;;;2.20;53.98
66385;BME280;53426;55.872;37.462;2023-04-07T02:51:45;100110.94;;;1.95;54.24
66385;BME280;53426;55.872;37.462;2023-04-07T02:54:11;100132.16;;;2.07;54.08
66385;BME280;53426;55.872;37.462;2023-04-07T02:56:37;100145.97;;;2.11;53.97
66385;BME280;53426;55.872;37.462;2023-04-07T02:59:03;100148.03;;;2.03;54.20
66385;BME280;53426;55.872;37.462;2023-04-07T03:01:32;100163.28;;;2.14;54.39
66385;BME280;53426;55.872;37.462;2023-04-07T03:03:59;100139.34;;;2.02;54.35
66385;BME280;53426;55.872;37.462;2023-04-07T03:06:29;100155.56;;;2.10;54.23
66385;BME280;53426;55.872;37.462;2023-04-07T03:09:05;100134.47;;;1.93;54.77
66385;BME280;53426;55.872;37.462;2023-04-07T03:11:32;100160.91;;;2.07;54.57
66385;BME280;53426;55.872;37.462;2023-04-07T03:13:59;100162.69;;;2.07;54.55
66385;BME280;53426;55.872;37.462;2023-04-07T03:16:26;100170.44;;;2.08;54.54
66385;BME280;53426;55.872;37.462;2023-04-07T03:19:03;100169.34;;;2.14;54.39
66385;BME280;53426;55.872;37.462;2023-04-07T03:21:32;100164.91;;;2.16;54.50
66385;BME280;53426;55.872;37.462;2023-04-07T03:23:58;100148.59;;;2.11;54.40
66385;BME280;53426;55.872;37.462;2023-04-07T03:26:25;100140.00;;;2.07;54.27
66385;BME280;53426;55.872;37.462;2023-04-07T03:28:52;100165.34;;;2.27;54.14
66385;BME280;53426;55.872;37.462;2023-04-07T03:31:18;100127.03;;;2.06;54.11
66385;BME280;53426;55.872;37.462;2023-04-07T03:33:45;100163.81;;;2.22;54.28
66385;BME280;53426;55.872;37.462;2023-04-07T03:36:15;100168.91;;;2.25;54.36
66385;BME280;53426;55.872;37.462;2023-04-07T03:38:46;100145.13;;;2.10;54.35
66385;BME280;53426;55.872;37.462;2023-04-07T03:41:14;100169.66;;;2.28;54.06
66385;BME280;53426;55.872;37.462;2023-04-07T03:43:40;100162.84;;;2.24;53.81
66385;BME280;53426;55.872;37.462;2023-04-07T03:46:06;100145.34;;;2.26;53.72
66385;BME280;53426;55.872;37.462;2023-04-07T03:48:34;100183.72;;;2.46;53.73
66385;BME280;53426;55.872;37.462;2023-04-07T03:51:08;100185.66;;;2.63;53.38
66385;BME280;53426;55.872;37.462;2023-04-07T03:53:34;100174.34;;;2.62;52.92
66385;BME280;53426;55.872;37.462;2023-04-07T03:56:10;100133.56;;;2.38;53.10
66385;BME280;53426;55.872;37.462;2023-04-07T03:58:48;100185.88;;;2.78;52.69
66385;BME280;53426;55.872;37.462;2023-04-07T04:01:21;100184.50;;;2.90;52.42
66385;BME280;53426;55.872;37.462;2023-04-07T04:03:49;100185.69;;;3.03;52.26
66385;BME280;53426;55.872;37.462;2023-04-07T04:06:33;100180.59;;;3.20;51.82
66385;BME280;53426;55.872;37.462;2023-04-07T04:09:08;100177.63;;;3.28;51.49
66385;BME280;53426;55.872;37.462;2023-04-07T04:11:40;100190.31;;;3.37;51.07
66385;BME280;53426;55.872;37.462;2023-04-07T04:14:07;100191.53;;;3.49;50.91
66385;BME280;53426;55.872;37.462;2023-04-07T04:16:35;100196.56;;;3.53;50.94
66385;BME280;53426;55.872;37.462;2023-04-07T04:19:05;100194.88;;;3.52;50.42
66385;BME280;53426;55.872;37.462;2023-04-07T04:21:31;100167.00;;;3.70;50.09
66385;BME280;53426;55.872;37.462;2023-04-07T04:23:57;100168.84;;;3.87;49.28
66385;BME280;53426;55.872;37.462;2023-04-07T04:26:24;100182.00;;;3.85;49.17
66385;BME280;53426;55.872;37.462;2023-04-07T04:32:33;100208.78;;;6.61;43.94
66385;BME280;53426;55.872;37.462;2023-04-07T04:39:12;100149.25;;;8.69;38.64
66385;BME280;53426;55.872;37.462;2023-04-07T04:41:38;100159.75;;;8.96;38.36
66385;BME280;53426;55.872;37.462;2023-04-07T04:44:06;100187.38;;;9.81;36.63
66385;BME280;53426;55.872;37.462;2023-04-07T04:46:31;100185.28;;;10.09;36.03
66385;BME280;53426;55.872;37.462;2023-04-07T04:48:58;100191.63;;;10.56;34.66
66385;BME280;53426;55.872;37.462;2023-04-07T04:51:25;100192.06;;;10.74;34.52
66385;BME280;53426;55.872;37.462;2023-04-07T04:53:56;100197.75;;;10.80;34.56
66385;BME280;53426;55.872;37.462;2023-04-07T04:56:25;100180.94;;;10.58;34.36
66385;BME280;53426;55.872;37.462;2023-04-07T04:58:56;100197.56;;;11.52;33.39
66385;BME280;53426;55.872;37.462;2023-04-07T05:01:31;100193.66;;;12.88;33.78
66385;BME280;53426;55.872;37.462;2023-04-07T05:04:03;100192.69;;;13.10;30.16
66385;BME280;53426;55.872;37.462;2023-04-07T05:06:29;100185.63;;;13.31;30.59
66385;BME280;53426;55.872;37.462;2023-04-07T05:09:02;100201.22;;;13.04;30.37
66385;BME280;53426;55.872;37.462;2023-04-07T05:11:36;100192.44;;;12.60;30.74
66385;BME280;53426;55.872;37.462;2023-04-07T05:14:03;100202.09;;;12.93;30.44
66385;BME280;53426;55.872;37.462;2023-04-07T05:16:31;100178.09;;;13.04;30.19
66385;BME280;53426;55.872;37.462;2023-04-07T05:18:58;100197.63;;;13.76;29.61
66385;BME280;53426;55.872;37.462;2023-04-07T05:21:25;100195.00;;;14.16;28.61
66385;BME280;53426;55.872;37.462;2023-04-07T05:24:00;100194.75;;;13.89;29.40
66385;BME280;53426;55.872;37.462;2023-04-07T05:26:26;100198.34;;;13.78;28.71
66385;BME280;53426;55.872;37.462;2023-04-07T05:28:53;100207.00;;;14.01;28.98
66385;BME280;53426;55.872;37.462;2023-04-07T05:31:22;100210.84;;;14.87;27.71
66385;BME280;53426;55.872;37.462;2023-04-07T05:33:52;100209.72;;;14.20;27.66
66385;BME280;53426;55.872;37.462;2023-04-07T05:36:20;100205.22;;;14.90;27.41
66385;BME280;53426;55.872;37.462;2023-04-07T05:38:46;100208.91;;;14.89;27.17
66385;BME280;53426;55.872;37.462;2023-04-07T05:41:23;100154.59;;;14.02;28.82
66385;BME280;53426;55.872;37.462;2023-04-07T05:43:48;100199.13;;;15.45;26.91
66385;BME280;53426;55.872;37.462;2023-04-07T05:46:26;100171.97;;;16.33;25.33
66385;BME280;53426;55.872;37.462;2023-04-07T05:49:21;100198.97;;;16.58;25.73
66385;BME280;53426;55.872;37.462;2023-04-07T05:51:58;100185.03;;;16.09;25.17
66385;BME280;53426;55.872;37.462;2023-04-07T05:54:24;100176.16;;;16.63;24.68
66385;BME280;53426;55.872;37.462;2023-04-07T05:56:52;100179.81;;;16.98;24.35
66385;BME280;53426;55.872;37.462;2023-04-07T05:59:19;100172.75;;;17.14;23.80
66385;BME280;53426;55.872;37.462;2023-04-07T06:01:48;100207.63;;;17.23;26.49
66385;BME280;53426;55.872;37.462;2023-04-07T06:04:15;100193.31;;;17.32;24.21
66385;BME280;53426;55.872;37.462;2023-04-07T06:06:41;100206.81;;;18.00;22.84
66385;BME280;53426;55.872;37.462;2023-04-07T06:09:08;100207.63;;;18.84;22.07
66385;BME280;53426;55.872;37.462;2023-04-07T06:11:34;100212.50;;;19.70;21.93
66385;BME280;53426;55.872;37.462;2023-04-07T06:14:00;100203.44;;;19.22;21.31
66385;BME280;53426;55.872;37.462;2023-04-07T06:16:26;100202.91;;;18.28;22.27
66385;BME280;53426;55.872;37.462;2023-04-07T06:18:53;100171.88;;;16.70;23.74
66385;BME280;53426;55.872;37.462;2023-04-07T06:21:19;100208.63;;;17.65;23.54
66385;BME280;53426;55.872;37.462;2023-04-07T06:23:45;100201.47;;;18.00;22.35
66385;BME280;53426;55.872;37.462;2023-04-07T06:26:15;100209.81;;;19.05;21.68
66385;BME280;53426;55.872;37.462;2023-04-07T06:31:36;100203.03;;;18.10;22.67
66385;BME280;53426;55.872;37.462;2023-04-07T06:34:02;100096.03;;;17.75;22.17
66385;BME280;53426;55.872;37.462;2023-04-07T06:39:49;100167.50;;;18.66;21.84
66385;BME280;53426;55.872;37.462;2023-04-07T06:42:15;100164.84;;;18.74;21.95
66385;BME280;53426;55.872;37.462;2023-04-07T06:44:51;100221.03;;;18.76;21.63
66385;BME280;53426;55.872;37.462;2023-04-07T06:47:19;100170.91;;;19.09;21.20
66385;BME280;53426;55.872;37.462;2023-04-07T06:49:46;100151.06;;;18.03;21.94
66385;BME280;53426;55.872;37.462;2023-04-07T06:52:18;100209.47;;;18.33;22.16
66385;BME280;53426;55.872;37.462;2023-04-07T06:54:44;100212.25;;;18.16;22.45
66385;BME280;53426;55.872;37.462;2023-04-07T06:57:11;100183.78;;;18.15;22.03
66385;BME280;53426;55.872;37.462;2023-04-07T06:59:37;100217.78;;;18.56;22.96
66385;BME280;53426;55.872;37.462;2023-04-07T07:02:03;100208.91;;;19.93;21.05
66385;BME280;53426;55.872;37.462;2023-04-07T07:04:33;100228.59;;;19.70;20.89
66385;BME280;53426;55.872;37.462;2023-04-07T07:07:00;100217.34;;;19.82;20.53
66385;BME280;53426;55.872;37.462;2023-04-07T07:09:27;100215.84;;;20.35;20.50
66385;BME280;53426;55.872;37.462;2023-04-07T07:11:53;100211.94;;;20.76;19.63
66385;BME280;53426;55.872;37.462;2023-04-07T07:14:19;100205.44;;;20.63;19.80
66385;BME280;53426;55.872;37.462;2023-04-07T07:16:45;100210.06;;;20.77;19.71
66385;BME280;53426;55.872;37.462;2023-04-07T07:19:37;100222.63;;;21.53;19.68
66385;BME280;53426;55.872;37.462;2023-04-07T07:22:07;100222.97;;;21.50;19.50
66385;BME280;53426;55.872;37.462;2023-04-07T07:24:33;100132.72;;;20.48;19.37
66385;BME280;53426;55.872;37.462;2023-04-07T07:27:40;100149.09;;;20.84;20.00
66385;BME280;53426;55.872;37.462;2023-04-07T07:30:12;100213.91;;;21.05;19.21
66385;BME280;53426;55.872;37.462;2023-04-07T07:32:39;100200.56;;;21.12;18.89
66385;BME280;53426;55.872;37.462;2023-04-07T07:35:08;100216.44;;;22.55;18.40
66385;BME280;53426;55.872;37.462;2023-04-07T07:37:34;100212.22;;;22.67;18.09
66385;BME280;53426;55.872;37.462;2023-04-07T07:40:08;100220.50;;;22.66;18.25
66385;BME280;53426;55.872;37.462;2023-04-07T07:42:34;100222.97;;;22.31;17.83
66385;BME280;53426;55.872;37.462;2023-04-07T07:45:00;100219.25;;;21.36;18.86
66385;BME280;53426;55.872;37.462;2023-04-07T07:47:26;100205.91;;;21.72;18.12
66385;BME280;53426;55.872;37.462;2023-04-07T07:49:51;100169.66;;;20.23;18.97
66385;BME280;53426;55.872;37.462;2023-04-07T07:52:17;100213.47;;;21.39;18.76
66385;BME280;53426;55.872;37.462;2023-04-07T07:54:48;100136.00;;;21.26;18.50
66385;BME280;53426;55.872;37.462;2023-04-07T07:57:17;100218.38;;;21.58;18.20
66385;BME280;53426;55.872;37.462;2023-04-07T07:59:43;100214.81;;;23.60;17.47
66385;BME280;53426;55.872;37.462;2023-04-07T08:02:09;100205.84;;;23.11;17.13
66385;BME280;53426;55.872;37.462;2023-04-07T08:04:35;100188.09;;;23.23;16.91
66385;BME280;53426;55.872;37.462;2023-04-07T08:07:03;100222.25;;;21.56;17.78
66385;BME280;53426;55.872;37.462;2023-04-07T08:09:54;100225.34;;;21.07;18.67
66385;BME280;53426;55.872;37.462;2023-04-07T08:12:20;100223.97;;;20.11;18.76
66385;BME280;53426;55.872;37.462;2023-04-07T08:14:46;100206.97;;;20.88;18.48
66385;BME280;53426;55.872;37.462;2023-04-07T08:17:15;100166.41;;;20.67;18.38
66385;BME280;53426;55.872;37.462;2023-04-07T08:19:41;100133.44;;;21.48;17.58
66385;BME280;53426;55.872;37.462;2023-04-07T08:22:07;100166.78;;;21.61;17.96
66385;BME280;53426;55.872;37.462;2023-04-07T08:28:37;100145.00;;;21.34;17.62
66385;BME280;53426;55.872;37.462;2023-04-07T08:31:04;100158.38;;;21.04;17.01
66385;BME280;53426;55.872;37.462;2023-04-07T08:33:30;100214.13;;;21.79;16.53
66385;BME280;53426;55.872;37.462;2023-04-07T08:35:56;100154.16;;;21.62;17.44
66385;BME280;53426;55.872;37.462;2023-04-07T08:38:22;100137.97;;;21.62;16.83
66385;BME280;53426;55.872;37.462;2023-04-07T08:40:52;100219.59;;;21.70;17.01
66385;BME280;53426;55.872;37.462;2023-04-07T08:43:21;100122.03;;;20.01;17.95
66385;BME280;53426;55.872;37.462;2023-04-07T08:45:48;100187.75;;;20.45;18.28
66385;BME280;53426;55.872;37.462;2023-04-07T08:48:23;100179.09;;;21.04;17.53
66385;BME280;53426;55.872;37.462;2023-04-07T09:00:12;100068.94;;;18.93;18.48
66385;BME280;53426;55.872;37.462;2023-04-07T09:05:59;100197.94;;;20.81;18.07
66385;BME280;53426;55.872;37.462;2023-04-07T09:08:26;100168.28;;;19.88;18.53
66385;BME280;53426;55.872;37.462;2023-04-07T09:10:56;100128.81;;;19.89;18.02
66385;BME280;53426;55.872;37.462;2023-04-07T09:13:25;100110.00;;;20.20;18.19
66385;BME280;53426;55.872;37.462;2023-04-07T09:15:51;100128.09;;;19.95;18.06
66385;BME280;53426;55.872;37.462;2023-04-07T09:18:17;100163.97;;;20.18;17.94
66385;BME280;53426;55.872;37.462;2023-04-07T09:21:17;100186.56;;;22.57;17.40
66385;BME280;53426;55.872;37.462;2023-04-07T09:23:44;100191.81;;;22.65;15.74
66385;BME280;53426;55.872;37.462;2023-04-07T09:26:25;100119.69;;;22.01;16.63
66385;BME280;53426;55.872;37.462;2023-04-07T09:29:00;100148.66;;;22.29;15.88
66385;BME280;53426;55.872;37.462;2023-04-07T09:32:03;100159.53;;;21.62;16.50
66385;BME280;53426;55.872;37.462;2023-04-07T09:35:05;100105.75;;;21.54;17.59
66385;BME280;53426;55.872;37.462;2023-04-07T09:38:05;100094.28;;;20.39;17.41
66385;BME280;53426;55.872;37.462;2023-04-07T09:40:33;100141.53;;;20.87;17.78
66385;BME280;53426;55.872;37.462;2023-04-07T09:46:21;100170.53;;;20.55;18.39
66385;BME280;53426;55.872;37.462;2023-04-07T09:49:00;100176.97;;;19.98;18.38
66385;BME280;53426;55.872;37.462;2023-04-07T09:51:28;100192.38;;;19.41;18.66
66385;BME280;53426;55.872;37.462;2023-04-07T09:57:12;100172.94;;;20.41;18.61
66385;BME280;53426;55.872;37.462;2023-04-07T09:59:42;100195.16;;;19.96;18.47
66385;BME280;53426;55.872;37.462;2023-04-07T10:02:33;100183.81;;;20.09;18.61
66385;BME280;53426;55.872;37.462;2023-04-07T10:05:28;100169.13;;;19.81;18.12
66385;BME280;53426;55.872;37.462;2023-04-07T10:07:55;100182.09;;;21.32;18.38
66385;BME280;53426;55.872;37.462;2023-04-07T10:10:28;100117.75;;;20.15;17.70
66385;BME280;53426;55.872;37.462;2023-04-07T10:12:56;100123.72;;;19.39;17.85
66385;BME280;53426;55.872;37.462;2023-04-07T10:15:26;100116.88;;;19.12;18.15
66385;BME280;53426;55.872;37.462;2023-04-07T10:26:57;100107.09;;;18.30;19.42
66385;BME280;53426;55.872;37.462;2023-04-07T10:29:24;100090.19;;;18.37;19.28
66385;BME280;53426;55.872;37.462;2023-04-07T10:31:54;100115.38;;;17.94;19.52
66385;BME280;53426;55.872;37.462;2023-04-07T10:37:13;100189.63;;;18.18;18.91
66385;BME280;53426;55.872;37.462;2023-04-07T10:39:42;100165.41;;;17.60;19.62
66385;BME280;53426;55.872;37.462;2023-04-07T10:45:02;100180.81;;;17.92;19.66
66385;BME280;53426;55.872;37.462;2023-04-07T10:47:29;100203.25;;;17.91;19.66
66385;BME280;53426;55.872;37.462;2023-04-07T10:50:18;100148.09;;;17.80;20.25
66385;BME280;53426;55.872;37.462;2023-04-07T10:52:45;100135.59;;;18.47;19.16
66385;BME280;53426;55.872;37.462;2023-04-07T10:55:38;100179.13;;;20.03;18.49
66385;BME280;53426;55.872;37.462;2023-04-07T10:58:33;100189.34;;;19.44;19.12
66385;BME280;53426;55.872;37.462;2023-04-07T11:03:27;100184.66;;;18.82;18.77
66385;BME280;53426;55.872;37.462;2023-04-07T11:06:13;100068.03;;;17.69;19.45
66385;BME280;53426;55.872;37.462;2023-04-07T11:08:41;100099.59;;;17.91;19.57
66385;BME280;53426;55.872;37.462;2023-04-07T11:11:09;100184.78;;;18.64;19.43
66385;BME280;53426;55.872;37.462;2023-04-07T11:13:45;100183.47;;;18.76;19.98
66385;BME280;53426;55.872;37.462;2023-04-07T11:16:13;100141.31;;;18.52;19.03
66385;BME280;53426;55.872;37.462;2023-04-07T11:18:39;100155.56;;;18.03;20.01
66385;BME280;53426;55.872;37.462;2023-04-07T11:21:06;100147.56;;;16.99;20.67
66385;BME280;53426;55.872;37.462;2023-04-07T11:23:43;100133.91;;;15.01;22.17
66385;BME280;53426;55.872;37.462;2023-04-07T11:26:13;100155.47;;;14.31;23.05
66385;BME280;53426;55.872;37.462;2023-04-07T11:31:29;100151.16;;;13.50;24.14
66385;BME280;53426;55.872;37.462;2023-04-07T11:34:01;100176.69;;;13.62;24.61
66385;BME280;53426;55.872;37.462;2023-04-07T11:36:53;100177.56;;;13.21;24.70
66385;BME280;53426;55.872;37.462;2023-04-07T11:39:25;100164.56;;;12.86;25.09
66385;BME280;53426;55.872;37.462;2023-04-07T11:41:59;99990.47;;;11.66;25.62
66385;BME280;53426;55.872;37.462;2023-04-07T11:44:25;100167.91;;;12.68;25.65
66385;BME280;53426;55.872;37.462;2023-04-07T11:46:59;100174.75;;;12.81;25.78
66385;BME280;53426;55.872;37.462;2023-04-07T11:49:27;100168.84;;;12.98;25.70
66385;BME280;53426;55.872;37.462;2023-04-07T11:52:18;100182.91;;;12.89;25.32
66385;BME280;53426;55.872;37.462;2023-04-07T11:54:45;100005.19;;;11.59;26.13
66385;BME280;53426;55.872;37.462;2023-04-07T11:57:43;100133.13;;;12.28;25.80
66385;BME280;53426;55.872;37.462;2023-04-07T12:00:09;100145.63;;;12.05;26.33
66385;BME280;53426;55.872;37.462;2023-04-07T12:02:36;100167.09;;;12.13;27.26
66385;BME280;53426;55.872;37.462;2023-04-07T12:05:03;100175.78;;;12.04;27.00
66385;BME280;53426;55.872;37.462;2023-04-07T12:07:29;100176.75;;;12.14;27.30
66385;BME280;53426;55.872;37.462;2023-04-07T12:09:56;100166.25;;;12.01;26.63
66385;BME280;53426;55.872;37.462;2023-04-07T12:12:29;100159.16;;;11.80;27.07
66385;BME280;53426;55.872;37.462;2023-04-07T12:14:57;100193.13;;;11.63;27.30
66385;BME280;53426;55.872;37.462;2023-04-07T12:17:24;100169.50;;;11.60;27.39
66385;BME280;53426;55.872;37.462;2023-04-07T12:20:00;100116.81;;;11.33;27.34
66385;BME280;53426;55.872;37.462;2023-04-07T12:22:29;100152.84;;;11.58;26.96
66385;BME280;53426;55.872;37.462;2023-04-07T12:25:15;100135.38;;;11.45;27.27
66385;BME280;53426;55.872;37.462;2023-04-07T12:27:41;100164.31;;;11.59;27.21
66385;BME280;53426;55.872;37.462;2023-04-07T12:30:07;100106.81;;;11.26;27.51
66385;BME280;53426;55.872;37.462;2023-04-07T12:32:33;100170.25;;;11.73;27.70
66385;BME280;53426;55.872;37.462;2023-04-07T12:35:00;100162.63;;;11.69;28.23
66385;BME280;53426;55.872;37.462;2023-04-07T12:37:25;100167.56;;;11.51;27.57
66385;BME280;53426;55.872;37.462;2023-04-07T12:40:04;100176.63;;;11.60;27.30
66385;BME280;53426;55.872;37.462;2023-04-07T12:42:56;100168.69;;;11.82;27.58
66385;BME280;53426;55.872;37.462;2023-04-07T12:45:26;100121.78;;;11.60;27.22
66385;BME280;53426;55.872;37.462;2023-04-07T12:48:01;100061.13;;;11.00;27.48
66385;BME280;53426;55.872;37.462;2023-04-07T12:50:29;100119.81;;;11.18;28.03
66385;BME280;53426;55.872;37.462;2023-04-07T12:52:56;100175.84;;;11.36;27.78
66385;BME280;53426;55.872;37.462;2023-04-07T13:01:38;100084.25;;;11.09;27.50
66385;BME280;53426;55.872;37.462;2023-04-07T13:04:05;100137.31;;;11.43;27.91
66385;BME280;53426;55.872;37.462;2023-04-07T13:06:34;100171.31;;;11.60;28.00
66385;BME280;53426;55.872;37.462;2023-04-07T13:09:00;100076.56;;;11.06;28.01
66385;BME280;53426;55.872;37.462;2023-04-07T13:11:26;100167.44;;;11.64;27.87
66385;BME280;53426;55.872;37.462;2023-04-07T13:13:53;100168.66;;;11.60;27.96
66385;BME280;53426;55.872;37.462;2023-04-07T13:16:19;100172.88;;;11.62;27.16
66385;BME280;53426;55.872;37.462;2023-04-07T13:18:47;100169.63;;;11.59;27.76
66385;BME280;53426;55.872;37.462;2023-04-07T13:21:13;100088.84;;;11.07;27.71
66385;BME280;53426;55.872;37.462;2023-04-07T13:23:39;100150.44;;;11.44;28.23
66385;BME280;53426;55.872;37.462;2023-04-07T13:26:04;100135.88;;;11.39;27.57
66385;BME280;53426;55.872;37.462;2023-04-07T13:28:31;100194.31;;;11.48;28.33
66385;BME280;53426;55.872;37.462;2023-04-07T13:30:58;100110.28;;;11.15;28.00
66385;BME280;53426;55.872;37.462;2023-04-07T13:33:24;100183.13;;;11.56;27.73
66385;BME280;53426;55.872;37.462;2023-04-07T13:35:49;100152.75;;;11.49;27.29
66385;BME280;53426;55.872;37.462;2023-04-07T13:38:15;100130.31;;;11.30;27.58
66385;BME280;53426;55.872;37.462;2023-04-07T13:40:44;100171.78;;;11.43;27.69
66385;BME280;53426;55.872;37.462;2023-04-07T13:43:10;100126.63;;;10.98;27.73
66385;BME280;53426;55.872;37.462;2023-04-07T13:45:38;100134.59;;;11.09;27.76
66385;BME280;53426;55.872;37.462;2023-04-07T13:48:04;100123.16;;;11.09;28.29
66385;BME280;53426;55.872;37.462;2023-04-07T13:50:30;100096.28;;;11.02;27.83
66385;BME280;53426;55.872;37.462;2023-04-07T13:52:56;100171.78;;;11.43;27.41
66385;BME280;53426;55.872;37.462;2023-04-07T13:55:22;100145.22;;;11.20;28.09
66385;BME280;53426;55.872;37.462;2023-04-07T13:57:48;100129.81;;;11.25;28.50
66385;BME280;53426;55.872;37.462;2023-04-07T14:00:14;100170.19;;;11.40;28.27
66385;BME280;53426;55.872;37.462;2023-04-07T14:02:40;100143.06;;;11.25;27.83
66385;BME280;53426;55.872;37.462;2023-04-07T14:05:07;100162.72;;;11.23;28.21
66385;BME280;53426;55.872;37.462;2023-04-07T14:07:36;100159.94;;;11.24;28.90
66385;BME280;53426;55.872;37.462;2023-04-07T14:10:04;100141.13;;;11.05;28.17
66385;BME280;53426;55.872;37.462;2023-04-07T14:12:30;100123.38;;;10.95;28.35
66385;BME280;53426;55.872;37.462;2023-04-07T14:14:56;100128.06;;;10.91;28.52
66385;BME280;53426;55.872;37.462;2023-04-07T14:17:25;100123.81;;;10.77;28.71
66385;BME280;53426;55.872;37.462;2023-04-07T14:19:51;100166.75;;;11.05;28.76
66385;BME280;53426;55.872;37.462;2023-04-07T14:22:17;100133.22;;;10.81;29.32
66385;BME280;53426;55.872;37.462;2023-04-07T14:24:44;100178.38;;;10.91;29.32
66385;BME280;53426;55.872;37.462;2023-04-07T14:27:10;100145.81;;;10.67;29.90
66385;BME280;53426;55.872;37.462;2023-04-07T14:29:35;100166.47;;;10.85;29.97
66385;BME280;53426;55.872;37.462;2023-04-07T14:32:02;100148.97;;;10.72;29.23